sensor_id;sensor_type;location;lat;lon;timestamp;pressure;altitude;pressure_sealevel;temperature;humidity
3796;BME280;1913;50.660;7.834;2023-04-02T00:03:05;96264.13;;;9.14;100.00
3796;BME280;1913;50.660;7.834;2023-04-02T00:05:41;96264.31;;;9.19;100.00
3796;BME280;1913;50.660;7.834;2023-04-02T00:08:20;96264.88;;;9.21;100.00
3796;BME280;1913;50.660;7.834;2023-04-02T00:10:47;96265.09;;;9.20;100.00
3796;BME280;1913;50.660;7.834;2023-04-02T00:15:42;96282.69;;;9.38;100.00
3796;BME280;1913;50.660;7.834;2023-04-02T00:18:16;96278.84;;;9.40;100.00
3796;BME280;1913;50.660;7.834;2023-04-02T00:20:56;96282.25;;;9.41;100.00
3796;BME280;1913;50.660;7.834;2023-04-02T00:23:25;96281.22;;;9.42;100.00
3796;BME280;1913;50.660;7.834;2023-04-02T00:25:50;96284.28;;;9.39;100.00
3796;BME280;1913;50.660;7.834;2023-04-02T00:28:21;96283.47;;;9.38;100.00
3796;BME280;1913;50.660;7.834;2023-04-02T00:30:57;96280.66;;;9.40;100.00
3796;BME280;1913;50.660;7.834;2023-04-02T00:33:26;96285.25;;;9.44;100.00
3796;BME280;1913;50.660;7.834;2023-04-02T00:35:53;96291.50;;;9.43;100.00
3796;BME280;1913;50.660;7.834;2023-04-02T00:38:29;96291.09;;;9.46;100.00
3796;BME280;1913;50.660;7.834;2023-04-02T00:40:58;96293.81;;;9.33;100.00
3796;BME280;1913;50.660;7.834;2023-04-02T00:43:30;96297.56;;;9.44;100.00
3796;BME280;1913;50.660;7.834;2023-04-02T00:45:59;96292.16;;;9.39;100.00
3796;BME280;1913;50.660;7.834;2023-04-02T00:51:36;96301.72;;;9.08;100.00
3796;BME280;1913;50.660;7.834;2023-04-02T00:54:09;96307.19;;;9.00;100.00
3796;BME280;1913;50.660;7.834;2023-04-02T00:56:44;96310.31;;;9.15;100.00
3796;BME280;1913;50.660;7.834;2023-04-02T00:59:34;96307.69;;;9.15;100.00
3796;BME280;1913;50.660;7.834;2023-04-02T01:04:39;96311.25;;;9.21;100.00
3796;BME280;1913;50.660;7.834;2023-04-02T01:07:08;96309.53;;;9.15;100.00
3796;BME280;1913;50.660;7.834;2023-04-02T01:12:18;96324.28;;;9.09;100.00
3796;BME280;1913;50.660;7.834;2023-04-02T01:15:16;96324.41;;;9.14;100.00
3796;BME280;1913;50.660;7.834;2023-04-02T01:18:04;96319.34;;;9.19;100.00
3796;BME280;1913;50.660;7.834;2023-04-02T01:29:12;96344.34;;;9.22;100.00
3796;BME280;1913;50.660;7.834;2023-04-02T01:31:39;96345.09;;;9.29;100.00
3796;BME280;1913;50.660;7.834;2023-04-02T01:34:08;96345.50;;;9.01;100.00
3796;BME280;1913;50.660;7.834;2023-04-02T01:39:16;96349.31;;;9.05;100.00
3796;BME280;1913;50.660;7.834;2023-04-02T01:41:46;96352.94;;;9.04;100.00
3796;BME280;1913;50.660;7.834;2023-04-02T01:44:32;96355.06;;;9.14;100.00
3796;BME280;1913;50.660;7.834;2023-04-02T01:47:02;96360.94;;;8.84;100.00
3796;BME280;1913;50.660;7.834;2023-04-02T01:49:29;96366.16;;;8.84;100.00
3796;BME280;1913;50.660;7.834;2023-04-02T01:51:55;96374.63;;;8.86;100.00
3796;BME280;1913;50.660;7.834;2023-04-02T01:54:22;96372.06;;;8.79;100.00
3796;BME280;1913;50.660;7.834;2023-04-02T01:56:48;96382.53;;;8.79;100.00
3796;BME280;1913;50.660;7.834;2023-04-02T01:59:19;96375.44;;;8.86;100.00
3796;BME280;1913;50.660;7.834;2023-04-02T02:01:51;96377.44;;;8.84;100.00
3796;BME280;1913;50.660;7.834;2023-04-02T02:04:21;96382.38;;;8.99;100.00
3796;BME280;1913;50.660;7.834;2023-04-02T02:06:47;96382.19;;;9.01;100.00
3796;BME280;1913;50.660;7.834;2023-04-02T02:09:21;96380.41;;;8.95;100.00
3796;BME280;1913;50.660;7.834;2023-04-02T02:11:48;96391.81;;;9.07;100.00
3796;BME280;1913;50.660;7.834;2023-04-02T02:14:22;96397.63;;;9.16;100.00
3796;BME280;1913;50.660;7.834;2023-04-02T02:16:49;96398.41;;;9.16;100.00
3796;BME280;1913;50.660;7.834;2023-04-02T02:24:32;96413.34;;;9.16;100.00
3796;BME280;1913;50.660;7.834;2023-04-02T02:30:05;96423.00;;;9.22;100.00
3796;BME280;1913;50.660;7.834;2023-04-02T02:32:41;96424.03;;;9.14;100.00
3796;BME280;1913;50.660;7.834;2023-04-02T02:37:43;96431.47;;;9.17;100.00
3796;BME280;1913;50.660;7.834;2023-04-02T02:40:22;96432.16;;;9.06;100.00
3796;BME280;1913;50.660;7.834;2023-04-02T02:42:56;96437.22;;;9.01;100.00
3796;BME280;1913;50.660;7.834;2023-04-02T02:45:25;96438.78;;;9.08;100.00
3796;BME280;1913;50.660;7.834;2023-04-02T02:47:52;96449.53;;;9.00;100.00
3796;BME280;1913;50.660;7.834;2023-04-02T02:50:22;96447.91;;;8.99;100.00
3796;BME280;1913;50.660;7.834;2023-04-02T02:52:53;96451.13;;;9.01;100.00
3796;BME280;1913;50.660;7.834;2023-04-02T02:55:30;96459.56;;;9.03;100.00
3796;BME280;1913;50.660;7.834;2023-04-02T02:58:19;96462.34;;;9.15;100.00
3796;BME280;1913;50.660;7.834;2023-04-02T03:00:48;96470.81;;;9.10;100.00
3796;BME280;1913;50.660;7.834;2023-04-02T03:03:18;96463.03;;;9.04;100.00
3796;BME280;1913;50.660;7.834;2023-04-02T03:05:54;96471.44;;;9.13;100.00
3796;BME280;1913;50.660;7.834;2023-04-02T03:08:45;96478.25;;;9.14;100.00
3796;BME280;1913;50.660;7.834;2023-04-02T03:11:31;96480.50;;;9.10;100.00
3796;BME280;1913;50.660;7.834;2023-04-02T03:14:05;96480.38;;;8.98;100.00
3796;BME280;1913;50.660;7.834;2023-04-02T03:16:39;96492.06;;;8.96;100.00
3796;BME280;1913;50.660;7.834;2023-04-02T03:22:18;96504.69;;;8.67;100.00
3796;BME280;1913;50.660;7.834;2023-04-02T03:24:55;96504.81;;;8.85;100.00
3796;BME280;1913;50.660;7.834;2023-04-02T03:27:45;96510.41;;;8.96;100.00
3796;BME280;1913;50.660;7.834;2023-04-02T03:33:27;96509.84;;;8.87;100.00
3796;BME280;1913;50.660;7.834;2023-04-02T03:36:12;96524.78;;;8.80;100.00
3796;BME280;1913;50.660;7.834;2023-04-02T03:41:42;96522.72;;;8.95;100.00
3796;BME280;1913;50.660;7.834;2023-04-02T03:46:57;96535.00;;;9.01;100.00
3796;BME280;1913;50.660;7.834;2023-04-02T03:49:42;96537.19;;;9.04;100.00
3796;BME280;1913;50.660;7.834;2023-04-02T03:52:19;96540.81;;;9.03;100.00
3796;BME280;1913;50.660;7.834;2023-04-02T03:54:47;96544.03;;;9.05;100.00
3796;BME280;1913;50.660;7.834;2023-04-02T03:57:44;96554.53;;;8.99;100.00
3796;BME280;1913;50.660;7.834;2023-04-02T04:00:35;96550.88;;;9.06;100.00
3796;BME280;1913;50.660;7.834;2023-04-02T04:03:12;96549.06;;;9.07;100.00
3796;BME280;1913;50.660;7.834;2023-04-02T04:05:50;96565.41;;;9.09;100.00
3796;BME280;1913;50.660;7.834;2023-04-02T04:08:21;96571.44;;;9.09;100.00
3796;BME280;1913;50.660;7.834;2023-04-02T04:10:55;96561.31;;;9.20;100.00
3796;BME280;1913;50.660;7.834;2023-04-02T04:13:28;96580.09;;;9.17;100.00
3796;BME280;1913;50.660;7.834;2023-04-02T04:15:59;96586.16;;;9.10;100.00
3796;BME280;1913;50.660;7.834;2023-04-02T04:18:34;96579.53;;;9.08;100.00
3796;BME280;1913;50.660;7.834;2023-04-02T04:21:31;96587.81;;;8.98;100.00
3796;BME280;1913;50.660;7.834;2023-04-02T04:24:05;96588.31;;;8.69;100.00
3796;BME280;1913;50.660;7.834;2023-04-02T04:26:40;96600.56;;;8.81;100.00
3796;BME280;1913;50.660;7.834;2023-04-02T04:29:22;96601.97;;;8.77;100.00
3796;BME280;1913;50.660;7.834;2023-04-02T04:31:50;96615.31;;;8.56;100.00
3796;BME280;1913;50.660;7.834;2023-04-02T04:34:41;96627.56;;;8.29;100.00
3796;BME280;1913;50.660;7.834;2023-04-02T04:37:23;96632.00;;;8.35;100.00
3796;BME280;1913;50.660;7.834;2023-04-02T04:39:57;96627.97;;;8.06;100.00
3796;BME280;1913;50.660;7.834;2023-04-02T04:42:30;96632.41;;;8.32;100.00
3796;BME280;1913;50.660;7.834;2023-04-02T04:47:38;96645.09;;;8.08;100.00
3796;BME280;1913;50.660;7.834;2023-04-02T04:50:15;96645.69;;;8.10;100.00
3796;BME280;1913;50.660;7.834;2023-04-02T04:52:43;96650.28;;;7.88;100.00
3796;BME280;1913;50.660;7.834;2023-04-02T04:55:36;96657.09;;;7.70;100.00
3796;BME280;1913;50.660;7.834;2023-04-02T04:58:20;96665.13;;;7.75;100.00
3796;BME280;1913;50.660;7.834;2023-04-02T05:03:29;96674.88;;;7.46;100.00
3796;BME280;1913;50.660;7.834;2023-04-02T05:06:00;96680.53;;;7.50;100.00
3796;BME280;1913;50.660;7.834;2023-04-02T05:08:32;96682.41;;;7.21;100.00
3796;BME280;1913;50.660;7.834;2023-04-02T05:11:10;96686.69;;;7.35;100.00
3796;BME280;1913;50.660;7.834;2023-04-02T05:13:53;96692.53;;;7.31;100.00
3796;BME280;1913;50.660;7.834;2023-04-02T05:16:27;96702.34;;;7.29;100.00
3796;BME280;1913;50.660;7.834;2023-04-02T05:19:09;96705.88;;;7.14;100.00
3796;BME280;1913;50.660;7.834;2023-04-02T05:22:26;96712.16;;;7.20;100.00
3796;BME280;1913;50.660;7.834;2023-04-02T05:29:46;96727.41;;;7.16;100.00
3796;BME280;1913;50.660;7.834;2023-04-02T05:32:17;96737.38;;;7.34;100.00
3796;BME280;1913;50.660;7.834;2023-04-02T05:34:48;96736.25;;;7.15;100.00
3796;BME280;1913;50.660;7.834;2023-04-02T05:37:21;96739.47;;;7.17;100.00
3796;BME280;1913;50.660;7.834;2023-04-02T05:39:54;96753.19;;;7.19;100.00
3796;BME280;1913;50.660;7.834;2023-04-02T05:42:29;96763.00;;;6.89;100.00
3796;BME280;1913;50.660;7.834;2023-04-02T05:47:44;96756.75;;;6.84;100.00
3796;BME280;1913;50.660;7.834;2023-04-02T05:50:18;96772.53;;;6.76;100.00
3796;BME280;1913;50.660;7.834;2023-04-02T05:52:54;96769.63;;;6.64;100.00
3796;BME280;1913;50.660;7.834;2023-04-02T05:58:04;96778.25;;;6.43;100.00
3796;BME280;1913;50.660;7.834;2023-04-02T06:03:32;96784.69;;;6.62;100.00
3796;BME280;1913;50.660;7.834;2023-04-02T06:06:06;96793.19;;;6.70;100.00
3796;BME280;1913;50.660;7.834;2023-04-02T06:08:39;96799.06;;;6.36;100.00
3796;BME280;1913;50.660;7.834;2023-04-02T06:11:36;96806.09;;;6.36;100.00
3796;BME280;1913;50.660;7.834;2023-04-02T06:14:10;96813.19;;;6.63;100.00
3796;BME280;1913;50.660;7.834;2023-04-02T06:16:36;96814.94;;;6.56;100.00
3796;BME280;1913;50.660;7.834;2023-04-02T06:19:07;96821.16;;;6.77;100.00
3796;BME280;1913;50.660;7.834;2023-04-02T06:21:42;96829.06;;;6.83;100.00
3796;BME280;1913;50.660;7.834;2023-04-02T06:24:10;96838.81;;;6.75;100.00
3796;BME280;1913;50.660;7.834;2023-04-02T06:26:40;96847.22;;;6.70;100.00
3796;BME280;1913;50.660;7.834;2023-04-02T06:29:15;96845.78;;;6.67;100.00
3796;BME280;1913;50.660;7.834;2023-04-02T06:31:53;96849.81;;;6.91;100.00
3796;BME280;1913;50.660;7.834;2023-04-02T06:34:22;96859.09;;;6.72;100.00
3796;BME280;1913;50.660;7.834;2023-04-02T06:36:50;96861.56;;;6.81;100.00
3796;BME280;1913;50.660;7.834;2023-04-02T06:39:23;96861.94;;;6.99;100.00
3796;BME280;1913;50.660;7.834;2023-04-02T06:42:15;96870.88;;;7.11;100.00
3796;BME280;1913;50.660;7.834;2023-04-02T06:44:42;96874.13;;;6.92;100.00
3796;BME280;1913;50.660;7.834;2023-04-02T06:49:58;96895.22;;;6.69;100.00
3796;BME280;1913;50.660;7.834;2023-04-02T06:57:42;96910.25;;;6.67;100.00
3796;BME280;1913;50.660;7.834;2023-04-02T07:00:31;96922.38;;;6.75;100.00
3796;BME280;1913;50.660;7.834;2023-04-02T07:03:00;96915.69;;;6.87;100.00
3796;BME280;1913;50.660;7.834;2023-04-02T07:05:29;96925.09;;;6.66;100.00
3796;BME280;1913;50.660;7.834;2023-04-02T07:07:55;96935.50;;;6.45;100.00
3796;BME280;1913;50.660;7.834;2023-04-02T07:10:21;96930.88;;;6.47;100.00
3796;BME280;1913;50.660;7.834;2023-04-02T07:12:46;96943.88;;;6.55;100.00
3796;BME280;1913;50.660;7.834;2023-04-02T07:15:16;96947.09;;;6.57;100.00
3796;BME280;1913;50.660;7.834;2023-04-02T07:17:44;96954.38;;;6.47;100.00
3796;BME280;1913;50.660;7.834;2023-04-02T07:20:24;96959.22;;;6.65;100.00
3796;BME280;1913;50.660;7.834;2023-04-02T07:22:51;96965.28;;;6.51;100.00
3796;BME280;1913;50.660;7.834;2023-04-02T07:25:17;96976.16;;;6.54;100.00
3796;BME280;1913;50.660;7.834;2023-04-02T07:27:42;96976.19;;;6.39;100.00
3796;BME280;1913;50.660;7.834;2023-04-02T07:30:08;96986.00;;;6.37;100.00
3796;BME280;1913;50.660;7.834;2023-04-02T07:32:33;96980.88;;;6.44;100.00
3796;BME280;1913;50.660;7.834;2023-04-02T07:34:58;96990.22;;;6.38;100.00
3796;BME280;1913;50.660;7.834;2023-04-02T07:37:24;96993.28;;;6.57;100.00
3796;BME280;1913;50.660;7.834;2023-04-02T07:39:50;97004.69;;;6.70;100.00
3796;BME280;1913;50.660;7.834;2023-04-02T07:42:16;96998.84;;;6.83;100.00
3796;BME280;1913;50.660;7.834;2023-04-02T07:44:41;97003.97;;;6.77;100.00
3796;BME280;1913;50.660;7.834;2023-04-02T07:47:07;97010.63;;;6.79;100.00
3796;BME280;1913;50.660;7.834;2023-04-02T07:49:34;97018.38;;;6.87;100.00
3796;BME280;1913;50.660;7.834;2023-04-02T07:52:00;97021.25;;;6.78;100.00
3796;BME280;1913;50.660;7.834;2023-04-02T07:54:25;97025.06;;;6.60;100.00
3796;BME280;1913;50.660;7.834;2023-04-02T07:56:51;97035.16;;;6.48;100.00
3796;BME280;1913;50.660;7.834;2023-04-02T07:59:16;97049.53;;;6.74;100.00
3796;BME280;1913;50.660;7.834;2023-04-02T08:01:42;97045.31;;;6.58;100.00
3796;BME280;1913;50.660;7.834;2023-04-02T08:04:16;97055.03;;;6.50;100.00
3796;BME280;1913;50.660;7.834;2023-04-02T08:06:42;97057.63;;;6.35;100.00
3796;BME280;1913;50.660;7.834;2023-04-02T08:09:07;97059.69;;;6.54;100.00
3796;BME280;1913;50.660;7.834;2023-04-02T08:11:33;97059.44;;;6.49;100.00
3796;BME280;1913;50.660;7.834;2023-04-02T08:13:58;97066.56;;;6.55;100.00
3796;BME280;1913;50.660;7.834;2023-04-02T08:16:23;97070.59;;;6.43;100.00
3796;BME280;1913;50.660;7.834;2023-04-02T08:18:49;97068.63;;;6.45;100.00
3796;BME280;1913;50.660;7.834;2023-04-02T08:21:15;97076.91;;;6.63;100.00
3796;BME280;1913;50.660;7.834;2023-04-02T08:23:41;97085.53;;;6.79;100.00
3796;BME280;1913;50.660;7.834;2023-04-02T08:26:07;97091.78;;;6.48;100.00
3796;BME280;1913;50.660;7.834;2023-04-02T08:28:33;97095.28;;;6.70;100.00
3796;BME280;1913;50.660;7.834;2023-04-02T08:30:59;97100.31;;;6.42;100.00
3796;BME280;1913;50.660;7.834;2023-04-02T08:33:25;97106.84;;;6.23;100.00
3796;BME280;1913;50.660;7.834;2023-04-02T08:35:50;97116.44;;;6.22;100.00
3796;BME280;1913;50.660;7.834;2023-04-02T08:38:17;97118.13;;;6.38;100.00
3796;BME280;1913;50.660;7.834;2023-04-02T08:40:46;97126.19;;;6.29;100.00
3796;BME280;1913;50.660;7.834;2023-04-02T08:43:35;97122.97;;;6.04;100.00
3796;BME280;1913;50.660;7.834;2023-04-02T08:46:17;97128.56;;;6.15;100.00
3796;BME280;1913;50.660;7.834;2023-04-02T08:48:55;97144.16;;;6.09;100.00
3796;BME280;1913;50.660;7.834;2023-04-02T08:51:26;97148.59;;;6.00;100.00
3796;BME280;1913;50.660;7.834;2023-04-02T08:53:59;97151.97;;;6.09;100.00
3796;BME280;1913;50.660;7.834;2023-04-02T08:56:32;97144.38;;;5.99;100.00
3796;BME280;1913;50.660;7.834;2023-04-02T08:59:05;97160.53;;;6.17;100.00
3796;BME280;1913;50.660;7.834;2023-04-02T09:01:41;97158.66;;;6.26;100.00
3796;BME280;1913;50.660;7.834;2023-04-02T09:04:17;97169.59;;;6.30;100.00
3796;BME280;1913;50.660;7.834;2023-04-02T09:06:45;97176.69;;;6.36;100.00
3796;BME280;1913;50.660;7.834;2023-04-02T09:09:11;97168.88;;;6.36;100.00
3796;BME280;1913;50.660;7.834;2023-04-02T09:11:57;97190.44;;;6.53;100.00
3796;BME280;1913;50.660;7.834;2023-04-02T09:17:31;97199.03;;;6.76;100.00
3796;BME280;1913;50.660;7.834;2023-04-02T09:20:01;97201.47;;;6.78;100.00
3796;BME280;1913;50.660;7.834;2023-04-02T09:22:28;97210.53;;;6.67;100.00
3796;BME280;1913;50.660;7.834;2023-04-02T09:24:58;97205.78;;;6.70;100.00
3796;BME280;1913;50.660;7.834;2023-04-02T09:27:30;97222.75;;;7.04;100.00
3796;BME280;1913;50.660;7.834;2023-04-02T09:32:52;97226.75;;;6.62;100.00
3796;BME280;1913;50.660;7.834;2023-04-02T09:35:28;97238.25;;;6.91;100.00
3796;BME280;1913;50.660;7.834;2023-04-02T09:40:57;97246.88;;;6.91;100.00
3796;BME280;1913;50.660;7.834;2023-04-02T09:43:23;97256.34;;;7.07;100.00
3796;BME280;1913;50.660;7.834;2023-04-02T09:53:49;97273.13;;;6.98;100.00
3796;BME280;1913;50.660;7.834;2023-04-02T10:01:35;97286.25;;;6.67;100.00
3796;BME280;1913;50.660;7.834;2023-04-02T10:04:02;97290.00;;;6.72;100.00
3796;BME280;1913;50.660;7.834;2023-04-02T10:06:30;97289.25;;;6.41;100.00
3796;BME280;1913;50.660;7.834;2023-04-02T10:08:57;97296.34;;;6.24;100.00
3796;BME280;1913;50.660;7.834;2023-04-02T10:11:42;97301.47;;;6.40;100.00
3796;BME280;1913;50.660;7.834;2023-04-02T10:14:32;97306.72;;;6.32;100.00
3796;BME280;1913;50.660;7.834;2023-04-02T10:17:01;97318.84;;;6.25;100.00
3796;BME280;1913;50.660;7.834;2023-04-02T10:19:35;97318.97;;;6.32;100.00
3796;BME280;1913;50.660;7.834;2023-04-02T10:22:12;97327.00;;;6.53;100.00
3796;BME280;1913;50.660;7.834;2023-04-02T10:24:39;97333.56;;;6.72;100.00
3796;BME280;1913;50.660;7.834;2023-04-02T10:38:32;97352.31;;;7.36;100.00
3796;BME280;1913;50.660;7.834;2023-04-02T10:43:52;97367.00;;;7.37;100.00
3796;BME280;1913;50.660;7.834;2023-04-02T10:54:42;97387.78;;;7.16;100.00
3796;BME280;1913;50.660;7.834;2023-04-02T10:57:18;97382.94;;;6.82;100.00
3796;BME280;1913;50.660;7.834;2023-04-02T10:59:53;97388.72;;;6.77;100.00
3796;BME280;1913;50.660;7.834;2023-04-02T11:02:25;97397.31;;;7.09;100.00
3796;BME280;1913;50.660;7.834;2023-04-02T11:04:53;97402.00;;;6.90;100.00
3796;BME280;1913;50.660;7.834;2023-04-02T11:07:23;97413.50;;;6.81;100.00
3796;BME280;1913;50.660;7.834;2023-04-02T11:09:55;97413.69;;;6.80;100.00
3796;BME280;1913;50.660;7.834;2023-04-02T11:12:25;97421.72;;;6.70;100.00
3796;BME280;1913;50.660;7.834;2023-04-02T11:14:54;97429.41;;;6.94;100.00
3796;BME280;1913;50.660;7.834;2023-04-02T11:17:20;97428.50;;;6.79;100.00
3796;BME280;1913;50.660;7.834;2023-04-02T11:19:46;97438.81;;;6.81;100.00
3796;BME280;1913;50.660;7.834;2023-04-02T11:22:23;97433.41;;;6.51;100.00
3796;BME280;1913;50.660;7.834;2023-04-02T11:24:49;97442.00;;;6.60;100.00
3796;BME280;1913;50.660;7.834;2023-04-02T11:27:26;97446.94;;;6.86;100.00
3796;BME280;1913;50.660;7.834;2023-04-02T11:42:49;97466.19;;;7.16;100.00
3796;BME280;1913;50.660;7.834;2023-04-02T11:50:32;97481.69;;;7.40;100.00
3796;BME280;1913;50.660;7.834;2023-04-02T11:55:33;97488.06;;;7.15;100.00
3796;BME280;1913;50.660;7.834;2023-04-02T12:09:23;97497.69;;;6.52;100.00
3796;BME280;1913;50.660;7.834;2023-04-02T12:11:50;97512.25;;;6.38;100.00
3796;BME280;1913;50.660;7.834;2023-04-02T12:14:46;97506.53;;;6.43;100.00
3796;BME280;1913;50.660;7.834;2023-04-02T12:17:33;97512.22;;;6.55;100.00
3796;BME280;1913;50.660;7.834;2023-04-02T12:22:33;97510.41;;;6.55;100.00
3796;BME280;1913;50.660;7.834;2023-04-02T12:25:04;97520.44;;;6.75;100.00
3796;BME280;1913;50.660;7.834;2023-04-02T12:27:31;97521.00;;;6.93;100.00
3796;BME280;1913;50.660;7.834;2023-04-02T12:32:39;97521.63;;;7.03;100.00
3796;BME280;1913;50.660;7.834;2023-04-02T12:35:05;97532.94;;;6.95;100.00
3796;BME280;1913;50.660;7.834;2023-04-02T12:37:30;97544.00;;;6.66;100.00
3796;BME280;1913;50.660;7.834;2023-04-02T12:40:12;97549.47;;;6.88;100.00
3796;BME280;1913;50.660;7.834;2023-04-02T12:42:40;97542.47;;;6.80;100.00
3796;BME280;1913;50.660;7.834;2023-04-02T12:45:06;97552.31;;;6.70;100.00
3796;BME280;1913;50.660;7.834;2023-04-02T12:47:32;97544.63;;;6.68;100.00
3796;BME280;1913;50.660;7.834;2023-04-02T12:49:59;97556.81;;;6.84;100.00
3796;BME280;1913;50.660;7.834;2023-04-02T12:52:27;97551.31;;;7.10;100.00
3796;BME280;1913;50.660;7.834;2023-04-02T12:54:54;97561.72;;;6.79;100.00
3796;BME280;1913;50.660;7.834;2023-04-02T12:59:57;97569.03;;;7.77;100.00
3796;BME280;1913;50.660;7.834;2023-04-02T13:02:26;97551.28;;;7.64;100.00
3796;BME280;1913;50.660;7.834;2023-04-02T13:04:57;97571.25;;;7.65;100.00
3796;BME280;1913;50.660;7.834;2023-04-02T13:07:31;97565.38;;;7.40;100.00
3796;BME280;1913;50.660;7.834;2023-04-02T13:09:59;97568.19;;;7.31;100.00
3796;BME280;1913;50.660;7.834;2023-04-02T13:12:37;97571.16;;;7.28;100.00
3796;BME280;1913;50.660;7.834;2023-04-02T13:17:46;97581.00;;;7.72;100.00
3796;BME280;1913;50.660;7.834;2023-04-02T13:20:33;97584.47;;;8.10;100.00
3796;BME280;1913;50.660;7.834;2023-04-02T13:23:02;97581.72;;;7.65;100.00
3796;BME280;1913;50.660;7.834;2023-04-02T13:25:46;97586.75;;;7.67;100.00
3796;BME280;1913;50.660;7.834;2023-04-02T13:28:11;97587.69;;;7.74;100.00
3796;BME280;1913;50.660;7.834;2023-04-02T13:30:36;97592.75;;;7.99;100.00
3796;BME280;1913;50.660;7.834;2023-04-02T13:33:02;97584.78;;;7.92;100.00
3796;BME280;1913;50.660;7.834;2023-04-02T13:35:27;97596.03;;;7.47;100.00
3796;BME280;1913;50.660;7.834;2023-04-02T13:37:53;97597.75;;;7.31;100.00
3796;BME280;1913;50.660;7.834;2023-04-02T13:40:18;97599.09;;;7.27;100.00
3796;BME280;1913;50.660;7.834;2023-04-02T13:42:44;97601.78;;;7.42;100.00
3796;BME280;1913;50.660;7.834;2023-04-02T13:45:26;97611.56;;;7.17;100.00
3796;BME280;1913;50.660;7.834;2023-04-02T13:47:53;97603.03;;;6.76;100.00
3796;BME280;1913;50.660;7.834;2023-04-02T13:50:21;97614.38;;;7.07;100.00
3796;BME280;1913;50.660;7.834;2023-04-02T13:52:51;97610.28;;;7.44;100.00
3796;BME280;1913;50.660;7.834;2023-04-02T13:55:19;97612.94;;;6.96;100.00
3796;BME280;1913;50.660;7.834;2023-04-02T13:57:46;97613.16;;;6.79;100.00
3796;BME280;1913;50.660;7.834;2023-04-02T14:00:12;97634.06;;;6.87;100.00
3796;BME280;1913;50.660;7.834;2023-04-02T14:02:40;97636.22;;;7.23;100.00
3796;BME280;1913;50.660;7.834;2023-04-02T14:17:07;97647.66;;;7.13;100.00
3796;BME280;1913;50.660;7.834;2023-04-02T14:25:37;97667.69;;;6.82;100.00
3796;BME280;1913;50.660;7.834;2023-04-02T14:30:46;97669.16;;;7.32;100.00
3796;BME280;1913;50.660;7.834;2023-04-02T14:38:58;97664.53;;;7.42;100.00
3796;BME280;1913;50.660;7.834;2023-04-02T14:44:03;97670.13;;;6.91;100.00
3796;BME280;1913;50.660;7.834;2023-04-02T14:46:36;97674.06;;;7.66;100.00
3796;BME280;1913;50.660;7.834;2023-04-02T14:51:57;97689.78;;;7.66;100.00
3796;BME280;1913;50.660;7.834;2023-04-02T14:54:43;97686.50;;;7.33;100.00
3796;BME280;1913;50.660;7.834;2023-04-02T14:57:30;97699.19;;;7.36;100.00
3796;BME280;1913;50.660;7.834;2023-04-02T15:05:18;97705.25;;;6.64;100.00
3796;BME280;1913;50.660;7.834;2023-04-02T15:07:52;97707.00;;;7.05;100.00
3796;BME280;1913;50.660;7.834;2023-04-02T15:12:45;97717.00;;;6.85;100.00
3796;BME280;1913;50.660;7.834;2023-04-02T15:17:50;97722.56;;;6.65;100.00
3796;BME280;1913;50.660;7.834;2023-04-02T15:20:17;97722.56;;;6.57;100.00
3796;BME280;1913;50.660;7.834;2023-04-02T15:25:49;97741.16;;;5.71;100.00
3796;BME280;1913;50.660;7.834;2023-04-02T15:30:50;97742.78;;;5.72;100.00
3796;BME280;1913;50.660;7.834;2023-04-02T15:35:55;97753.41;;;5.87;100.00
3796;BME280;1913;50.660;7.834;2023-04-02T15:38:36;97750.91;;;6.11;100.00
3796;BME280;1913;50.660;7.834;2023-04-02T15:44:01;97760.88;;;6.16;100.00
3796;BME280;1913;50.660;7.834;2023-04-02T15:49:25;97769.41;;;5.84;100.00
3796;BME280;1913;50.660;7.834;2023-04-02T15:52:59;97773.75;;;5.75;100.00
3796;BME280;1913;50.660;7.834;2023-04-02T16:09:09;97799.56;;;5.86;100.00
3796;BME280;1913;50.660;7.834;2023-04-02T16:11:38;97799.69;;;5.76;100.00
3796;BME280;1913;50.660;7.834;2023-04-02T16:14:26;97813.84;;;5.74;100.00
3796;BME280;1913;50.660;7.834;2023-04-02T16:16:54;97810.50;;;5.56;100.00
3796;BME280;1913;50.660;7.834;2023-04-02T16:19:31;97818.91;;;5.75;100.00
3796;BME280;1913;50.660;7.834;2023-04-02T16:24:35;97819.34;;;5.11;100.00
3796;BME280;1913;50.660;7.834;2023-04-02T16:32:55;97839.28;;;5.20;100.00
3796;BME280;1913;50.660;7.834;2023-04-02T16:51:41;97866.09;;;4.76;100.00
3796;BME280;1913;50.660;7.834;2023-04-02T16:54:18;97864.53;;;4.84;100.00
3796;BME280;1913;50.660;7.834;2023-04-02T16:59:43;97873.09;;;4.94;100.00
3796;BME280;1913;50.660;7.834;2023-04-02T17:06:14;97877.97;;;4.89;100.00
3796;BME280;1913;50.660;7.834;2023-04-02T17:08:29;97886.78;;;5.14;100.00
3796;BME280;1913;50.660;7.834;2023-04-02T17:11:23;97894.28;;;5.35;100.00
3796;BME280;1913;50.660;7.834;2023-04-02T17:13:58;97894.81;;;5.20;100.00
3796;BME280;1913;50.660;7.834;2023-04-02T17:16:43;97896.41;;;5.13;100.00
3796;BME280;1913;50.660;7.834;2023-04-02T17:19:14;97895.13;;;5.17;100.00
3796;BME280;1913;50.660;7.834;2023-04-02T17:21:43;97899.53;;;5.17;100.00
3796;BME280;1913;50.660;7.834;2023-04-02T17:26:39;97905.03;;;5.14;100.00
3796;BME280;1913;50.660;7.834;2023-04-02T17:29:14;97904.50;;;5.10;100.00
3796;BME280;1913;50.660;7.834;2023-04-02T17:31:42;97915.00;;;5.18;100.00
3796;BME280;1913;50.660;7.834;2023-04-02T17:34:15;97918.22;;;5.30;100.00
3796;BME280;1913;50.660;7.834;2023-04-02T17:47:18;97940.97;;;4.92;100.00
3796;BME280;1913;50.660;7.834;2023-04-02T17:52:31;97941.19;;;4.63;100.00
3796;BME280;1913;50.660;7.834;2023-04-02T17:55:23;97939.31;;;4.55;100.00
3796;BME280;1913;50.660;7.834;2023-04-02T17:57:56;97951.00;;;4.69;100.00
3796;BME280;1913;50.660;7.834;2023-04-02T18:00:56;97953.31;;;4.90;100.00
3796;BME280;1913;50.660;7.834;2023-04-02T18:25:24;97987.41;;;4.97;100.00
3796;BME280;1913;50.660;7.834;2023-04-02T18:30:41;97987.28;;;4.98;100.00
3796;BME280;1913;50.660;7.834;2023-04-02T18:36:35;97996.66;;;5.09;100.00
3796;BME280;1913;50.660;7.834;2023-04-02T18:39:52;98007.47;;;5.14;100.00
3796;BME280;1913;50.660;7.834;2023-04-02T18:50:36;98017.81;;;5.06;100.00
3796;BME280;1913;50.660;7.834;2023-04-02T18:53:30;98027.47;;;5.14;100.00
3796;BME280;1913;50.660;7.834;2023-04-02T18:56:03;98034.28;;;5.24;100.00
3796;BME280;1913;50.660;7.834;2023-04-02T18:58:45;98035.03;;;5.35;100.00
3796;BME280;1913;50.660;7.834;2023-04-02T19:01:29;98036.47;;;5.19;100.00
3796;BME280;1913;50.660;7.834;2023-04-02T19:04:01;98042.38;;;5.21;100.00
3796;BME280;1913;50.660;7.834;2023-04-02T19:06:36;98042.66;;;5.18;100.00